sensor_id;sensor_type;location;lat;lon;timestamp;P1;durP1;ratioP1;P2;durP2;ratioP2
51764;SDS011;37835;53.256;6.456;2023-09-08T00:00:51;10.98;;;8.57;;
51764;SDS011;37835;53.256;6.456;2023-09-08T00:03:16;15.35;;;9.10;;
51764;SDS011;37835;53.256;6.456;2023-09-08T00:05:42;9.32;;;8.35;;
51764;SDS011;37835;53.256;6.456;2023-09-08T00:08:08;10.07;;;9.18;;
51764;SDS011;37835;53.256;6.456;2023-09-08T00:10:33;9.55;;;8.63;;
51764;SDS011;37835;53.256;6.456;2023-09-08T00:12:59;9.93;;;8.88;;
51764;SDS011;37835;53.256;6.456;2023-09-08T00:15:24;11.60;;;9.45;;
51764;SDS011;37835;53.256;6.456;2023-09-08T00:17:50;10.55;;;8.63;;
51764;SDS011;37835;53.256;6.456;2023-09-08T00:20:15;9.60;;;8.70;;
51764;SDS011;37835;53.256;6.456;2023-09-08T00:22:41;11.85;;;8.85;;
51764;SDS011;37835;53.256;6.456;2023-09-08T00:25:07;11.40;;;9.30;;
51764;SDS011;37835;53.256;6.456;2023-09-08T00:27:32;9.40;;;8.35;;
51764;SDS011;37835;53.256;6.456;2023-09-08T00:29:58;9.40;;;8.23;;
51764;SDS011;37835;53.256;6.456;2023-09-08T00:32:26;10.30;;;8.10;;
51764;SDS011;37835;53.256;6.456;2023-09-08T00:34:52;11.23;;;8.57;;
51764;SDS011;37835;53.256;6.456;2023-09-08T00:37:18;9.27;;;8.40;;
51764;SDS011;37835;53.256;6.456;2023-09-08T00:39:43;11.75;;;8.35;;
51764;SDS011;37835;53.256;6.456;2023-09-08T00:42:09;10.32;;;8.43;;
51764;SDS011;37835;53.256;6.456;2023-09-08T00:44:34;11.88;;;8.43;;
51764;SDS011;37835;53.256;6.456;2023-09-08T00:47:00;9.90;;;8.48;;
51764;SDS011;37835;53.256;6.456;2023-09-08T00:49:26;10.00;;;7.97;;
51764;SDS011;37835;53.256;6.456;2023-09-08T00:51:51;9.95;;;8.50;;
51764;SDS011;37835;53.256;6.456;2023-09-08T00:54:17;10.40;;;8.23;;
51764;SDS011;37835;53.256;6.456;2023-09-08T00:56:43;10.18;;;8.55;;
51764;SDS011;37835;53.256;6.456;2023-09-08T00:59:10;9.13;;;8.30;;
51764;SDS011;37835;53.256;6.456;2023-09-08T01:01:36;8.85;;;7.90;;
51764;SDS011;37835;53.256;6.456;2023-09-08T01:04:02;11.77;;;8.90;;
51764;SDS011;37835;53.256;6.456;2023-09-08T01:06:27;13.05;;;8.90;;
51764;SDS011;37835;53.256;6.456;2023-09-08T01:08:54;13.00;;;9.32;;
51764;SDS011;37835;53.256;6.456;2023-09-08T01:11:20;17.95;;;8.93;;
51764;SDS011;37835;53.256;6.456;2023-09-08T01:13:46;13.65;;;8.82;;
51764;SDS011;37835;53.256;6.456;2023-09-08T01:16:12;11.73;;;8.50;;
51764;SDS011;37835;53.256;6.456;2023-09-08T01:18:38;10.13;;;9.13;;
51764;SDS011;37835;53.256;6.456;2023-09-08T01:26:36;10.77;;;9.25;;
51764;SDS011;37835;53.256;6.456;2023-09-08T01:29:05;11.63;;;9.27;;
51764;SDS011;37835;53.256;6.456;2023-09-08T01:31:31;10.38;;;8.85;;
51764;SDS011;37835;53.256;6.456;2023-09-08T01:33:58;10.07;;;9.18;;
51764;SDS011;37835;53.256;6.456;2023-09-08T01:36:26;10.73;;;9.35;;
51764;SDS011;37835;53.256;6.456;2023-09-08T01:38:52;12.63;;;9.77;;
51764;SDS011;37835;53.256;6.456;2023-09-08T01:41:17;10.75;;;9.65;;
51764;SDS011;37835;53.256;6.456;2023-09-08T01:43:43;10.50;;;9.48;;
51764;SDS011;37835;53.256;6.456;2023-09-08T01:46:08;10.20;;;8.70;;
51764;SDS011;37835;53.256;6.456;2023-09-08T01:48:34;11.95;;;9.55;;
51764;SDS011;37835;53.256;6.456;2023-09-08T01:50:59;11.25;;;9.18;;
51764;SDS011;37835;53.256;6.456;2023-09-08T01:53:25;13.15;;;10.30;;
51764;SDS011;37835;53.256;6.456;2023-09-08T01:55:51;11.35;;;9.20;;
51764;SDS011;37835;53.256;6.456;2023-09-08T01:58:16;10.93;;;9.43;;
51764;SDS011;37835;53.256;6.456;2023-09-08T02:00:42;14.48;;;9.95;;
51764;SDS011;37835;53.256;6.456;2023-09-08T02:03:07;10.05;;;9.05;;
51764;SDS011;37835;53.256;6.456;2023-09-08T02:05:33;11.20;;;10.10;;
51764;SDS011;37835;53.256;6.456;2023-09-08T02:08:03;11.52;;;9.93;;
51764;SDS011;37835;53.256;6.456;2023-09-08T02:10:29;10.65;;;9.63;;
51764;SDS011;37835;53.256;6.456;2023-09-08T02:12:55;11.23;;;10.13;;
51764;SDS011;37835;53.256;6.456;2023-09-08T02:15:21;11.35;;;10.13;;
51764;SDS011;37835;53.256;6.456;2023-09-08T02:17:46;11.13;;;9.50;;
51764;SDS011;37835;53.256;6.456;2023-09-08T02:20:18;11.63;;;10.13;;
51764;SDS011;37835;53.256;6.456;2023-09-08T02:22:43;14.70;;;10.43;;
51764;SDS011;37835;53.256;6.456;2023-09-08T02:25:09;12.57;;;9.88;;
51764;SDS011;37835;53.256;6.456;2023-09-08T02:27:34;13.15;;;9.80;;
51764;SDS011;37835;53.256;6.456;2023-09-08T02:30:01;10.23;;;9.23;;
51764;SDS011;37835;53.256;6.456;2023-09-08T02:32:26;10.82;;;9.80;;
51764;SDS011;37835;53.256;6.456;2023-09-08T02:34:52;12.05;;;10.05;;
51764;SDS011;37835;53.256;6.456;2023-09-08T02:37:18;16.63;;;10.27;;
51764;SDS011;37835;53.256;6.456;2023-09-08T02:39:44;14.73;;;9.48;;
51764;SDS011;37835;53.256;6.456;2023-09-08T02:42:09;11.52;;;9.30;;
51764;SDS011;37835;53.256;6.456;2023-09-08T02:44:35;11.77;;;9.40;;
51764;SDS011;37835;53.256;6.456;2023-09-08T02:47:00;12.40;;;9.90;;
51764;SDS011;37835;53.256;6.456;2023-09-08T02:49:26;12.70;;;9.57;;
51764;SDS011;37835;53.256;6.456;2023-09-08T02:51:52;13.63;;;9.30;;
51764;SDS011;37835;53.256;6.456;2023-09-08T02:54:17;12.65;;;9.52;;
51764;SDS011;37835;53.256;6.456;2023-09-08T02:56:43;13.45;;;9.48;;
51764;SDS011;37835;53.256;6.456;2023-09-08T02:59:08;14.63;;;9.70;;
51764;SDS011;37835;53.256;6.456;2023-09-08T03:01:34;14.55;;;10.30;;
51764;SDS011;37835;53.256;6.456;2023-09-08T03:03:59;15.88;;;9.77;;
51764;SDS011;37835;53.256;6.456;2023-09-08T03:06:25;12.07;;;9.93;;
51764;SDS011;37835;53.256;6.456;2023-09-08T03:08:51;11.32;;;10.13;;
51764;SDS011;37835;53.256;6.456;2023-09-08T03:11:17;13.80;;;9.95;;
51764;SDS011;37835;53.256;6.456;2023-09-08T03:13:42;10.88;;;9.77;;
51764;SDS011;37835;53.256;6.456;2023-09-08T03:16:08;11.13;;;10.02;;
51764;SDS011;37835;53.256;6.456;2023-09-08T03:18:35;11.20;;;10.05;;
51764;SDS011;37835;53.256;6.456;2023-09-08T03:21:05;13.30;;;9.95;;
51764;SDS011;37835;53.256;6.456;2023-09-08T03:23:43;12.20;;;10.40;;
51764;SDS011;37835;53.256;6.456;2023-09-08T03:26:10;12.55;;;10.30;;
51764;SDS011;37835;53.256;6.456;2023-09-08T03:28:36;11.57;;;10.30;;
51764;SDS011;37835;53.256;6.456;2023-09-08T03:31:03;17.13;;;11.23;;
51764;SDS011;37835;53.256;6.456;2023-09-08T03:33:29;12.13;;;10.02;;
51764;SDS011;37835;53.256;6.456;2023-09-08T03:35:55;12.45;;;10.57;;
51764;SDS011;37835;53.256;6.456;2023-09-08T03:38:21;11.73;;;10.63;;
51764;SDS011;37835;53.256;6.456;2023-09-08T03:40:47;12.52;;;10.30;;
51764;SDS011;37835;53.256;6.456;2023-09-08T03:43:12;13.30;;;10.63;;
51764;SDS011;37835;53.256;6.456;2023-09-08T03:45:38;11.48;;;10.30;;
51764;SDS011;37835;53.256;6.456;2023-09-08T03:48:04;12.30;;;11.02;;
51764;SDS011;37835;53.256;6.456;2023-09-08T03:50:29;12.18;;;10.93;;
51764;SDS011;37835;53.256;6.456;2023-09-08T03:52:56;10.98;;;9.80;;
51764;SDS011;37835;53.256;6.456;2023-09-08T03:55:21;13.55;;;10.25;;
51764;SDS011;37835;53.256;6.456;2023-09-08T03:57:47;12.48;;;9.95;;
51764;SDS011;37835;53.256;6.456;2023-09-08T04:00:13;12.20;;;10.30;;
51764;SDS011;37835;53.256;6.456;2023-09-08T04:05:10;10.55;;;9.35;;
51764;SDS011;37835;53.256;6.456;2023-09-08T04:07:36;10.75;;;9.57;;
51764;SDS011;37835;53.256;6.456;2023-09-08T04:10:01;12.10;;;10.65;;
51764;SDS011;37835;53.256;6.456;2023-09-08T04:12:28;12.18;;;10.45;;
51764;SDS011;37835;53.256;6.456;2023-09-08T04:14:53;12.65;;;11.02;;
51764;SDS011;37835;53.256;6.456;2023-09-08T04:17:19;13.82;;;9.88;;
51764;SDS011;37835;53.256;6.456;2023-09-08T04:19:44;12.70;;;10.07;;
51764;SDS011;37835;53.256;6.456;2023-09-08T04:22:10;12.48;;;10.20;;
51764;SDS011;37835;53.256;6.456;2023-09-08T04:24:36;12.50;;;10.38;;
51764;SDS011;37835;53.256;6.456;2023-09-08T04:27:02;11.48;;;10.38;;
51764;SDS011;37835;53.256;6.456;2023-09-08T04:29:28;11.60;;;10.20;;
51764;SDS011;37835;53.256;6.456;2023-09-08T04:31:54;15.00;;;10.65;;
51764;SDS011;37835;53.256;6.456;2023-09-08T04:34:19;11.45;;;10.30;;
51764;SDS011;37835;53.256;6.456;2023-09-08T04:36:45;11.40;;;10.20;;
51764;SDS011;37835;53.256;6.456;2023-09-08T04:39:11;10.98;;;9.98;;
51764;SDS011;37835;53.256;6.456;2023-09-08T04:41:36;11.82;;;10.52;;
51764;SDS011;37835;53.256;6.456;2023-09-08T04:44:03;14.38;;;10.23;;
51764;SDS011;37835;53.256;6.456;2023-09-08T04:46:29;11.65;;;10.45;;
51764;SDS011;37835;53.256;6.456;2023-09-08T04:48:55;11.13;;;9.77;;
51764;SDS011;37835;53.256;6.456;2023-09-08T04:51:21;11.25;;;10.13;;
51764;SDS011;37835;53.256;6.456;2023-09-08T04:53:46;16.67;;;10.40;;
51764;SDS011;37835;53.256;6.456;2023-09-08T04:56:13;15.63;;;10.35;;
51764;SDS011;37835;53.256;6.456;2023-09-08T04:58:39;12.93;;;10.05;;
51764;SDS011;37835;53.256;6.456;2023-09-08T05:01:04;12.88;;;11.02;;
51764;SDS011;37835;53.256;6.456;2023-09-08T05:03:30;12.52;;;10.93;;
51764;SDS011;37835;53.256;6.456;2023-09-08T05:05:56;18.25;;;10.63;;
51764;SDS011;37835;53.256;6.456;2023-09-08T05:08:22;14.98;;;10.27;;
51764;SDS011;37835;53.256;6.456;2023-09-08T05:10:47;12.27;;;11.00;;
51764;SDS011;37835;53.256;6.456;2023-09-08T05:13:13;12.52;;;10.55;;
51764;SDS011;37835;53.256;6.456;2023-09-08T05:15:42;11.73;;;10.07;;
51764;SDS011;37835;53.256;6.456;2023-09-08T05:18:09;12.52;;;10.55;;
51764;SDS011;37835;53.256;6.456;2023-09-08T05:20:34;10.73;;;9.80;;
51764;SDS011;37835;53.256;6.456;2023-09-08T05:23:00;11.68;;;10.10;;
51764;SDS011;37835;53.256;6.456;2023-09-08T05:25:25;10.63;;;9.52;;
51764;SDS011;37835;53.256;6.456;2023-09-08T05:27:51;12.05;;;9.73;;
51764;SDS011;37835;53.256;6.456;2023-09-08T05:30:17;12.43;;;9.93;;
51764;SDS011;37835;53.256;6.456;2023-09-08T05:32:42;13.65;;;10.25;;
51764;SDS011;37835;53.256;6.456;2023-09-08T05:35:08;13.02;;;10.23;;
51764;SDS011;37835;53.256;6.456;2023-09-08T05:37:33;10.85;;;9.85;;
51764;SDS011;37835;53.256;6.456;2023-09-08T05:39:59;12.50;;;10.25;;
51764;SDS011;37835;53.256;6.456;2023-09-08T05:42:24;13.48;;;10.23;;
51764;SDS011;37835;53.256;6.456;2023-09-08T05:44:50;11.80;;;10.20;;
51764;SDS011;37835;53.256;6.456;2023-09-08T05:47:16;10.80;;;9.70;;
51764;SDS011;37835;53.256;6.456;2023-09-08T05:49:42;14.85;;;9.85;;
51764;SDS011;37835;53.256;6.456;2023-09-08T05:52:07;10.30;;;9.30;;
51764;SDS011;37835;53.256;6.456;2023-09-08T05:54:33;12.65;;;9.55;;
51764;SDS011;37835;53.256;6.456;2023-09-08T05:56:59;12.82;;;10.07;;
51764;SDS011;37835;53.256;6.456;2023-09-08T05:59:24;15.85;;;10.85;;
51764;SDS011;37835;53.256;6.456;2023-09-08T06:01:50;15.27;;;9.77;;
51764;SDS011;37835;53.256;6.456;2023-09-08T06:04:16;15.48;;;10.32;;
51764;SDS011;37835;53.256;6.456;2023-09-08T06:06:41;16.98;;;10.38;;
51764;SDS011;37835;53.256;6.456;2023-09-08T06:09:07;15.45;;;10.07;;
51764;SDS011;37835;53.256;6.456;2023-09-08T06:11:34;12.38;;;10.23;;
51764;SDS011;37835;53.256;6.456;2023-09-08T06:13:59;12.45;;;10.23;;
51764;SDS011;37835;53.256;6.456;2023-09-08T06:16:25;12.75;;;9.32;;
51764;SDS011;37835;53.256;6.456;2023-09-08T06:18:51;10.95;;;9.18;;
51764;SDS011;37835;53.256;6.456;2023-09-08T06:21:16;10.60;;;8.68;;
51764;SDS011;37835;53.256;6.456;2023-09-08T06:23:42;14.70;;;9.23;;
51764;SDS011;37835;53.256;6.456;2023-09-08T06:26:08;12.68;;;9.45;;
51764;SDS011;37835;53.256;6.456;2023-09-08T06:28:33;11.07;;;9.85;;
51764;SDS011;37835;53.256;6.456;2023-09-08T06:30:59;14.05;;;9.27;;
51764;SDS011;37835;53.256;6.456;2023-09-08T06:33:24;13.68;;;9.77;;
51764;SDS011;37835;53.256;6.456;2023-09-08T06:35:50;12.57;;;9.63;;
51764;SDS011;37835;53.256;6.456;2023-09-08T06:38:16;11.18;;;10.00;;
51764;SDS011;37835;53.256;6.456;2023-09-08T06:40:41;13.27;;;9.70;;
51764;SDS011;37835;53.256;6.456;2023-09-08T06:43:07;12.80;;;9.80;;
51764;SDS011;37835;53.256;6.456;2023-09-08T06:45:33;12.48;;;9.45;;
51764;SDS011;37835;53.256;6.456;2023-09-08T06:47:58;12.95;;;9.35;;
51764;SDS011;37835;53.256;6.456;2023-09-08T06:50:25;12.63;;;9.43;;
51764;SDS011;37835;53.256;6.456;2023-09-08T06:52:51;14.65;;;9.45;;
51764;SDS011;37835;53.256;6.456;2023-09-08T06:55:17;23.17;;;10.07;;
51764;SDS011;37835;53.256;6.456;2023-09-08T06:57:44;12.80;;;9.57;;
51764;SDS011;37835;53.256;6.456;2023-09-08T07:00:10;11.13;;;9.07;;
51764;SDS011;37835;53.256;6.456;2023-09-08T07:02:37;9.40;;;8.20;;
51764;SDS011;37835;53.256;6.456;2023-09-08T07:05:03;10.15;;;9.15;;
51764;SDS011;37835;53.256;6.456;2023-09-08T07:07:36;9.70;;;8.82;;
51764;SDS011;37835;53.256;6.456;2023-09-08T07:10:03;11.25;;;8.55;;
51764;SDS011;37835;53.256;6.456;2023-09-08T07:12:29;9.48;;;8.57;;
51764;SDS011;37835;53.256;6.456;2023-09-08T07:14:54;11.88;;;8.15;;
51764;SDS011;37835;53.256;6.456;2023-09-08T07:17:20;9.80;;;8.20;;
51764;SDS011;37835;53.256;6.456;2023-09-08T07:19:48;10.02;;;9.05;;
51764;SDS011;37835;53.256;6.456;2023-09-08T07:22:14;10.50;;;8.55;;
51764;SDS011;37835;53.256;6.456;2023-09-08T07:24:39;11.13;;;7.88;;
51764;SDS011;37835;53.256;6.456;2023-09-08T07:27:05;11.10;;;8.23;;
51764;SDS011;37835;53.256;6.456;2023-09-08T07:29:30;10.35;;;8.15;;
51764;SDS011;37835;53.256;6.456;2023-09-08T07:31:56;14.43;;;7.97;;
51764;SDS011;37835;53.256;6.456;2023-09-08T07:34:22;12.65;;;7.95;;
51764;SDS011;37835;53.256;6.456;2023-09-08T07:36:47;12.82;;;7.43;;
51764;SDS011;37835;53.256;6.456;2023-09-08T07:39:13;9.15;;;7.60;;
51764;SDS011;37835;53.256;6.456;2023-09-08T07:41:38;8.15;;;7.35;;
51764;SDS011;37835;53.256;6.456;2023-09-08T07:44:05;8.93;;;7.72;;
51764;SDS011;37835;53.256;6.456;2023-09-08T07:46:31;10.15;;;7.75;;
51764;SDS011;37835;53.256;6.456;2023-09-08T07:48:57;9.30;;;7.45;;
51764;SDS011;37835;53.256;6.456;2023-09-08T07:51:24;11.40;;;7.25;;
51764;SDS011;37835;53.256;6.456;2023-09-08T07:53:50;15.90;;;7.68;;
51764;SDS011;37835;53.256;6.456;2023-09-08T07:56:17;9.68;;;7.70;;
51764;SDS011;37835;53.256;6.456;2023-09-08T07:58:42;8.57;;;7.15;;
51764;SDS011;37835;53.256;6.456;2023-09-08T08:01:08;8.30;;;7.10;;
51764;SDS011;37835;53.256;6.456;2023-09-08T08:03:33;9.65;;;7.25;;
51764;SDS011;37835;53.256;6.456;2023-09-08T08:06:00;10.82;;;7.53;;
51764;SDS011;37835;53.256;6.456;2023-09-08T08:08:26;8.50;;;7.65;;
51764;SDS011;37835;53.256;6.456;2023-09-08T08:10:52;12.70;;;7.22;;
51764;SDS011;37835;53.256;6.456;2023-09-08T08:13:17;7.45;;;6.75;;
51764;SDS011;37835;53.256;6.456;2023-09-08T08:15:43;9.80;;;6.35;;
51764;SDS011;37835;53.256;6.456;2023-09-08T08:18:10;7.18;;;6.57;;
51764;SDS011;37835;53.256;6.456;2023-09-08T08:20:36;9.38;;;6.35;;
51764;SDS011;37835;53.256;6.456;2023-09-08T08:23:02;7.75;;;6.78;;
51764;SDS011;37835;53.256;6.456;2023-09-08T08:25:29;7.05;;;6.32;;
51764;SDS011;37835;53.256;6.456;2023-09-08T08:27:54;9.15;;;6.20;;
51764;SDS011;37835;53.256;6.456;2023-09-08T08:30:21;7.85;;;6.95;;
51764;SDS011;37835;53.256;6.456;2023-09-08T08:32:47;9.00;;;7.10;;
51764;SDS011;37835;53.256;6.456;2023-09-08T08:35:13;6.80;;;6.10;;
51764;SDS011;37835;53.256;6.456;2023-09-08T08:37:39;7.00;;;5.97;;
51764;SDS011;37835;53.256;6.456;2023-09-08T08:40:06;7.78;;;5.93;;
51764;SDS011;37835;53.256;6.456;2023-09-08T08:42:34;7.30;;;5.93;;
51764;SDS011;37835;53.256;6.456;2023-09-08T08:45:00;7.18;;;6.10;;
51764;SDS011;37835;53.256;6.456;2023-09-08T08:47:27;10.40;;;6.05;;
51764;SDS011;37835;53.256;6.456;2023-09-08T08:49:55;7.78;;;5.30;;
51764;SDS011;37835;53.256;6.456;2023-09-08T08:52:23;5.90;;;5.40;;
51764;SDS011;37835;53.256;6.456;2023-09-08T08:54:50;9.43;;;5.47;;
51764;SDS011;37835;53.256;6.456;2023-09-08T08:57:15;9.32;;;5.78;;
51764;SDS011;37835;53.256;6.456;2023-09-08T08:59:41;9.73;;;5.97;;
51764;SDS011;37835;53.256;6.456;2023-09-08T09:02:07;10.00;;;5.55;;
51764;SDS011;37835;53.256;6.456;2023-09-08T09:04:35;6.90;;;5.65;;
51764;SDS011;37835;53.256;6.456;2023-09-08T09:07:02;10.63;;;5.70;;
51764;SDS011;37835;53.256;6.456;2023-09-08T09:09:29;8.65;;;5.78;;
51764;SDS011;37835;53.256;6.456;2023-09-08T09:11:54;6.55;;;5.72;;
51764;SDS011;37835;53.256;6.456;2023-09-08T09:14:20;7.15;;;5.50;;
51764;SDS011;37835;53.256;6.456;2023-09-08T09:16:48;7.55;;;5.75;;
51764;SDS011;37835;53.256;6.456;2023-09-08T09:19:18;6.53;;;5.35;;
51764;SDS011;37835;53.256;6.456;2023-09-08T09:21:52;14.23;;;5.72;;
51764;SDS011;37835;53.256;6.456;2023-09-08T09:24:32;5.97;;;5.38;;
51764;SDS011;37835;53.256;6.456;2023-09-08T09:27:00;14.45;;;5.28;;
51764;SDS011;37835;53.256;6.456;2023-09-08T09:29:27;11.00;;;5.32;;
51764;SDS011;37835;53.256;6.456;2023-09-08T09:31:54;7.03;;;4.93;;
51764;SDS011;37835;53.256;6.456;2023-09-08T09:34:21;6.72;;;5.35;;
51764;SDS011;37835;53.256;6.456;2023-09-08T09:36:51;10.98;;;5.60;;
51764;SDS011;37835;53.256;6.456;2023-09-08T09:39:17;12.57;;;5.15;;
51764;SDS011;37835;53.256;6.456;2023-09-08T09:41:46;5.32;;;4.88;;
51764;SDS011;37835;53.256;6.456;2023-09-08T09:44:13;8.63;;;4.40;;
51764;SDS011;37835;53.256;6.456;2023-09-08T09:46:42;5.35;;;4.53;;
51764;SDS011;37835;53.256;6.456;2023-09-08T09:49:19;7.72;;;5.10;;
51764;SDS011;37835;53.256;6.456;2023-09-08T09:51:48;5.07;;;4.57;;
51764;SDS011;37835;53.256;6.456;2023-09-08T09:54:16;6.70;;;4.45;;
51764;SDS011;37835;53.256;6.456;2023-09-08T09:56:42;7.15;;;4.50;;
51764;SDS011;37835;53.256;6.456;2023-09-08T09:59:09;7.55;;;5.00;;
51764;SDS011;37835;53.256;6.456;2023-09-08T10:01:36;8.18;;;4.75;;
51764;SDS011;37835;53.256;6.456;2023-09-08T10:04:03;13.52;;;5.32;;
51764;SDS011;37835;53.256;6.456;2023-09-08T10:06:34;11.48;;;5.15;;
51764;SDS011;37835;53.256;6.456;2023-09-08T10:09:01;8.48;;;5.10;;
51764;SDS011;37835;53.256;6.456;2023-09-08T10:11:38;9.23;;;4.78;;
51764;SDS011;37835;53.256;6.456;2023-09-08T10:14:09;10.75;;;5.28;;
51764;SDS011;37835;53.256;6.456;2023-09-08T10:16:36;9.32;;;4.95;;
51764;SDS011;37835;53.256;6.456;2023-09-08T10:19:07;8.98;;;5.00;;
51764;SDS011;37835;53.256;6.456;2023-09-08T10:21:34;6.90;;;4.30;;
51764;SDS011;37835;53.256;6.456;2023-09-08T10:24:06;5.15;;;4.55;;
51764;SDS011;37835;53.256;6.456;2023-09-08T10:26:40;7.95;;;4.60;;
51764;SDS011;37835;53.256;6.456;2023-09-08T10:29:09;5.90;;;4.50;;
51764;SDS011;37835;53.256;6.456;2023-09-08T10:31:35;9.85;;;4.63;;
51764;SDS011;37835;53.256;6.456;2023-09-08T10:34:01;15.85;;;4.78;;
51764;SDS011;37835;53.256;6.456;2023-09-08T10:36:28;13.43;;;4.90;;
51764;SDS011;37835;53.256;6.456;2023-09-08T10:38:53;9.73;;;4.88;;
51764;SDS011;37835;53.256;6.456;2023-09-08T10:43:57;12.07;;;4.85;;
51764;SDS011;37835;53.256;6.456;2023-09-08T10:46:27;9.27;;;4.85;;
51764;SDS011;37835;53.256;6.456;2023-09-08T10:48:53;9.73;;;4.47;;
51764;SDS011;37835;53.256;6.456;2023-09-08T10:51:20;11.90;;;4.78;;
51764;SDS011;37835;53.256;6.456;2023-09-08T10:53:49;8.45;;;4.35;;
51764;SDS011;37835;53.256;6.456;2023-09-08T10:56:14;7.80;;;4.75;;
51764;SDS011;37835;53.256;6.456;2023-09-08T10:58:42;5.22;;;4.43;;
51764;SDS011;37835;53.256;6.456;2023-09-08T11:01:18;4.93;;;4.03;;
51764;SDS011;37835;53.256;6.456;2023-09-08T11:03:51;4.40;;;4.00;;
51764;SDS011;37835;53.256;6.456;2023-09-08T11:06:19;6.18;;;4.10;;
51764;SDS011;37835;53.256;6.456;2023-09-08T11:08:55;13.18;;;4.10;;
51764;SDS011;37835;53.256;6.456;2023-09-08T11:11:21;7.32;;;4.65;;
51764;SDS011;37835;53.256;6.456;2023-09-08T11:13:46;4.40;;;4.00;;
51764;SDS011;37835;53.256;6.456;2023-09-08T11:16:15;7.10;;;3.88;;
51764;SDS011;37835;53.256;6.456;2023-09-08T11:18:42;6.70;;;4.03;;
51764;SDS011;37835;53.256;6.456;2023-09-08T11:21:08;6.03;;;3.53;;
51764;SDS011;37835;53.256;6.456;2023-09-08T11:23:35;5.50;;;4.35;;
51764;SDS011;37835;53.256;6.456;2023-09-08T11:26:01;5.22;;;4.10;;
51764;SDS011;37835;53.256;6.456;2023-09-08T11:28:27;6.93;;;3.85;;
51764;SDS011;37835;53.256;6.456;2023-09-08T11:30:54;5.00;;;4.05;;
51764;SDS011;37835;53.256;6.456;2023-09-08T11:33:21;6.15;;;4.00;;
51764;SDS011;37835;53.256;6.456;2023-09-08T11:35:51;6.68;;;3.90;;
51764;SDS011;37835;53.256;6.456;2023-09-08T11:38:18;11.45;;;4.18;;
51764;SDS011;37835;53.256;6.456;2023-09-08T11:40:48;8.68;;;4.28;;
51764;SDS011;37835;53.256;6.456;2023-09-08T11:43:14;6.28;;;3.88;;
51764;SDS011;37835;53.256;6.456;2023-09-08T11:45:40;5.78;;;4.15;;
51764;SDS011;37835;53.256;6.456;2023-09-08T11:48:08;4.88;;;3.83;;
51764;SDS011;37835;53.256;6.456;2023-09-08T11:50:34;4.78;;;4.20;;
51764;SDS011;37835;53.256;6.456;2023-09-08T11:53:00;5.80;;;4.15;;
51764;SDS011;37835;53.256;6.456;2023-09-08T11:55:27;4.25;;;3.85;;
51764;SDS011;37835;53.256;6.456;2023-09-08T11:57:54;4.50;;;4.13;;
51764;SDS011;37835;53.256;6.456;2023-09-08T12:00:22;6.10;;;4.20;;
51764;SDS011;37835;53.256;6.456;2023-09-08T12:02:49;5.40;;;4.10;;
51764;SDS011;37835;53.256;6.456;2023-09-08T12:07:53;4.70;;;3.97;;
51764;SDS011;37835;53.256;6.456;2023-09-08T12:12:50;6.03;;;3.78;;
51764;SDS011;37835;53.256;6.456;2023-09-08T12:15:39;6.93;;;4.13;;
51764;SDS011;37835;53.256;6.456;2023-09-08T12:18:09;4.85;;;4.28;;
51764;SDS011;37835;53.256;6.456;2023-09-08T12:20:36;5.88;;;4.10;;
51764;SDS011;37835;53.256;6.456;2023-09-08T12:23:17;13.82;;;4.57;;
51764;SDS011;37835;53.256;6.456;2023-09-08T12:25:44;6.93;;;3.92;;
51764;SDS011;37835;53.256;6.456;2023-09-08T12:28:11;10.77;;;4.75;;
51764;SDS011;37835;53.256;6.456;2023-09-08T12:30:36;4.72;;;4.20;;
51764;SDS011;37835;53.256;6.456;2023-09-08T12:33:03;12.88;;;4.47;;
51764;SDS011;37835;53.256;6.456;2023-09-08T12:35:29;4.13;;;3.83;;
51764;SDS011;37835;53.256;6.456;2023-09-08T12:37:56;7.55;;;3.72;;
51764;SDS011;37835;53.256;6.456;2023-09-08T12:40:23;4.90;;;3.95;;
51764;SDS011;37835;53.256;6.456;2023-09-08T12:42:49;4.50;;;3.58;;
51764;SDS011;37835;53.256;6.456;2023-09-08T12:45:15;7.57;;;4.05;;
51764;SDS011;37835;53.256;6.456;2023-09-08T12:47:40;11.43;;;3.70;;
51764;SDS011;37835;53.256;6.456;2023-09-08T12:50:06;4.05;;;3.60;;
51764;SDS011;37835;53.256;6.456;2023-09-08T12:52:32;6.38;;;4.05;;
51764;SDS011;37835;53.256;6.456;2023-09-08T12:54:58;5.78;;;3.70;;
51764;SDS011;37835;53.256;6.456;2023-09-08T12:57:23;6.97;;;3.97;;
51764;SDS011;37835;53.256;6.456;2023-09-08T12:59:49;6.45;;;3.97;;
51764;SDS011;37835;53.256;6.456;2023-09-08T13:02:16;7.70;;;3.67;;
51764;SDS011;37835;53.256;6.456;2023-09-08T13:04:42;5.70;;;3.80;;
51764;SDS011;37835;53.256;6.456;2023-09-08T13:07:13;4.50;;;4.10;;
51764;SDS011;37835;53.256;6.456;2023-09-08T13:09:39;7.55;;;4.03;;
51764;SDS011;37835;53.256;6.456;2023-09-08T13:12:05;7.25;;;3.92;;
51764;SDS011;37835;53.256;6.456;2023-09-08T13:14:31;6.72;;;3.72;;
51764;SDS011;37835;53.256;6.456;2023-09-08T13:16:57;4.13;;;3.83;;
51764;SDS011;37835;53.256;6.456;2023-09-08T13:19:22;5.93;;;3.92;;
51764;SDS011;37835;53.256;6.456;2023-09-08T13:21:48;5.40;;;3.83;;
51764;SDS011;37835;53.256;6.456;2023-09-08T13:24:13;4.78;;;3.65;;
51764;SDS011;37835;53.256;6.456;2023-09-08T13:26:39;7.15;;;3.72;;
51764;SDS011;37835;53.256;6.456;2023-09-08T13:29:04;8.10;;;3.92;;
51764;SDS011;37835;53.256;6.456;2023-09-08T13:31:30;7.25;;;3.63;;
51764;SDS011;37835;53.256;6.456;2023-09-08T13:33:56;3.50;;;3.30;;
51764;SDS011;37835;53.256;6.456;2023-09-08T13:36:21;9.60;;;4.28;;
51764;SDS011;37835;53.256;6.456;2023-09-08T13:38:47;8.00;;;4.18;;
51764;SDS011;37835;53.256;6.456;2023-09-08T13:41:12;12.48;;;4.50;;
51764;SDS011;37835;53.256;6.456;2023-09-08T13:43:38;18.20;;;4.78;;
51764;SDS011;37835;53.256;6.456;2023-09-08T13:46:03;7.78;;;3.58;;
51764;SDS011;37835;53.256;6.456;2023-09-08T13:48:29;4.50;;;3.70;;
51764;SDS011;37835;53.256;6.456;2023-09-08T13:50:55;7.38;;;3.75;;
51764;SDS011;37835;53.256;6.456;2023-09-08T13:53:25;4.17;;;3.47;;
51764;SDS011;37835;53.256;6.456;2023-09-08T13:55:51;8.00;;;3.72;;
51764;SDS011;37835;53.256;6.456;2023-09-08T13:58:16;7.82;;;3.53;;
51764;SDS011;37835;53.256;6.456;2023-09-08T14:00:42;3.75;;;3.53;;
51764;SDS011;37835;53.256;6.456;2023-09-08T14:03:07;9.23;;;3.50;;
51764;SDS011;37835;53.256;6.456;2023-09-08T14:05:33;3.70;;;3.40;;
51764;SDS011;37835;53.256;6.456;2023-09-08T14:07:58;3.55;;;3.22;;
51764;SDS011;37835;53.256;6.456;2023-09-08T14:10:24;4.07;;;3.65;;
51764;SDS011;37835;53.256;6.456;2023-09-08T14:12:50;4.28;;;3.50;;
51764;SDS011;37835;53.256;6.456;2023-09-08T14:15:15;5.18;;;3.45;;
51764;SDS011;37835;53.256;6.456;2023-09-08T14:17:41;6.50;;;3.30;;
51764;SDS011;37835;53.256;6.456;2023-09-08T14:20:08;3.80;;;3.20;;
51764;SDS011;37835;53.256;6.456;2023-09-08T14:22:34;3.95;;;3.60;;
51764;SDS011;37835;53.256;6.456;2023-09-08T14:25:00;6.50;;;3.20;;
51764;SDS011;37835;53.256;6.456;2023-09-08T14:27:25;3.50;;;3.20;;
51764;SDS011;37835;53.256;6.456;2023-09-08T14:29:51;3.70;;;3.40;;
51764;SDS011;37835;53.256;6.456;2023-09-08T14:32:17;3.90;;;3.22;;
51764;SDS011;37835;53.256;6.456;2023-09-08T14:34:42;4.20;;;3.17;;
51764;SDS011;37835;53.256;6.456;2023-09-08T14:37:08;4.43;;;3.17;;
51764;SDS011;37835;53.256;6.456;2023-09-08T14:39:34;4.55;;;3.42;;
51764;SDS011;37835;53.256;6.456;2023-09-08T14:41:59;4.38;;;3.90;;
51764;SDS011;37835;53.256;6.456;2023-09-08T14:44:25;10.20;;;3.42;;
51764;SDS011;37835;53.256;6.456;2023-09-08T14:46:50;10.20;;;3.72;;
51764;SDS011;37835;53.256;6.456;2023-09-08T14:49:17;9.23;;;3.60;;